Time;durP1;ratioP1;P1;durP2;ratioP2;P2;SDS_P1;SDS_P2;PMS_P1;PMS_P2;Temp;Humidity;BMP_temperature;BMP_pressure;BME280_temperature;BME280_humidity;BME280_pressure;Samples;Min_cycle;Max_cycle;Signal;HPM_P1;HPM_P2
2021/12/01 00:02:16;;;;;;;;;;;3.40;99.90;;;;;;5071994;28;19929;-80
2021/12/01 00:04:43;;;;;;;;;;;3.30;99.90;;;;;;5066828;28;20016;-79
2021/12/01 00:07:11;;;;;;;;;;;3.30;99.90;;;;;;5065183;28;20020;-80
2021/12/01 00:09:37;;;;;;;;;;;3.30;99.90;;;;;;5063081;28;19929;-79
2021/12/01 00:12:04;;;;;;;;;;;3.30;99.90;;;;;;5062870;28;19967;-79
2021/12/01 00:14:32;;;;;;;;;;;3.30;99.90;;;;;;5063580;28;20004;-79
2021/12/01 00:16:59;;;;;;;;;;;3.30;99.90;;;;;;5062767;28;20020;-79
2021/12/01 00:19:25;;;;;;;;;;;3.20;99.90;;;;;;5062018;28;19925;-79
2021/12/01 00:21:52;;;;;;;;;;;3.10;99.90;;;;;;5067485;28;19932;-78
2021/12/01 00:24:19;;;;;;;;;;;3.20;99.90;;;;;;5075765;28;19933;-79
2021/12/01 00:26:46;;;;;;;;;;;3.30;99.90;;;;;;5075323;28;19964;-79
2021/12/01 00:29:13;;;;;;;;;;;3.30;99.90;;;;;;5072481;28;20314;-79
2021/12/01 00:31:42;;;;;;;;;;;3.30;99.90;;;;;;5059814;28;19968;-79
2021/12/01 00:34:09;;;;;;;;;;;3.30;99.90;;;;;;5059836;28;19925;-80
2021/12/01 00:36:36;;;;;;;;;;;3.30;99.90;;;;;;5061235;28;19925;-79
2021/12/01 00:39:03;;;;;;;;;;;3.30;99.90;;;;;;5055761;28;20007;-80
2021/12/01 00:41:30;;;;;;;;;;;3.60;99.90;;;;;;5056528;28;20015;-80
2021/12/01 00:43:56;;;;;;;;;;;3.40;99.90;;;;;;5055707;28;19925;-78
2021/12/01 00:46:25;;;;;;;;;;;3.30;99.90;;;;;;5055959;28;20346;-80
2021/12/01 00:48:53;;;;;;;;;;;3.30;99.90;;;;;;5055782;28;20280;-80
2021/12/01 00:51:19;;;;;;;;;;;3.30;99.90;;;;;;5055119;28;20314;-80
2021/12/01 00:53:46;;;;;;;;;;;3.30;99.90;;;;;;5056515;28;20479;-80
2021/12/01 00:56:13;;;;;;;;;;;3.30;99.90;;;;;;5057661;28;19980;-80
2021/12/01 00:58:39;;;;;;;;;;;3.30;99.90;;;;;;5056466;28;20007;-80
2021/12/01 01:01:06;;;;;;;;;;;3.30;99.90;;;;;;5058469;28;20462;-80
2021/12/01 01:03:33;;;;;;;;;;;3.20;99.90;;;;;;5063100;28;19925;-79
2021/12/01 01:06:01;;;;;;;;;;;3.30;99.90;;;;;;5069358;28;19925;-77
2021/12/01 01:08:27;;;;;;;;;;;3.10;99.90;;;;;;5068421;28;19992;-77
2021/12/01 01:16:22;;;;;;;;;;;3.30;99.90;;;;;;5065463;28;19983;-77
2021/12/01 01:16:43;;;;;;;;;;;3.30;99.90;;;;;;5055144;28;20287;-78
2021/12/01 01:19:10;;;;;;;;;;;3.30;99.90;;;;;;5056470;28;19933;-78
2021/12/01 01:21:41;;;;;;;;;;;3.30;99.90;;;;;;5059623;28;20091;-78
2021/12/01 01:24:08;;;;;;;;;;;3.30;99.90;;;;;;5059531;28;19996;-78
2021/12/01 01:26:35;;;;;;;;;;;3.30;99.90;;;;;;5061785;28;20019;-78
2021/12/01 01:29:03;;;;;;;;;;;3.30;99.90;;;;;;5065066;28;19932;-78
2021/12/01 01:31:30;;;;;;;;;;;3.30;99.90;;;;;;5063219;28;19925;-79
2021/12/01 01:33:57;;;;;;;;;;;3.30;99.90;;;;;;5060887;28;19932;-79
2021/12/01 01:36:24;;;;;;;;;;;3.30;99.90;;;;;;5068613;28;19931;-79
2021/12/01 01:38:52;;;;;;;;;;;3.50;99.90;;;;;;5060792;28;19971;-79
2021/12/01 01:41:19;;;;;;;;;;;3.30;99.90;;;;;;5059966;28;19936;-79
2021/12/01 01:43:48;;;;;;;;;;;3.40;99.90;;;;;;5059929;28;19924;-79
2021/12/01 01:46:15;;;;;;;;;;;3.40;99.90;;;;;;5059335;28;19925;-79
2021/12/01 01:48:47;;;;;;;;;;;3.40;99.90;;;;;;5059552;28;19925;-79
2021/12/01 01:51:15;;;;;;;;;;;3.20;99.90;;;;;;5059071;28;19928;-79
2021/12/01 01:53:42;;;;;;;;;;;3.30;99.90;;;;;;5059029;28;19992;-80
2021/12/01 01:56:11;;;;;;;;;;;3.40;99.90;;;;;;5057966;28;20015;-79
2021/12/01 01:58:38;;;;;;;;;;;3.40;99.90;;;;;;5058841;28;20019;-79
2021/12/01 02:01:09;;;;;;;;;;;3.40;99.90;;;;;;5058644;28;19968;-79
2021/12/01 02:03:38;;;;;;;;;;;3.40;99.90;;;;;;5059174;28;19966;-80
2021/12/01 02:06:05;;;;;;;;;;;3.40;99.90;;;;;;5058611;28;19924;-80
2021/12/01 02:08:33;;;;;;;;;;;3.40;99.90;;;;;;5059070;28;20040;-79
2021/12/01 02:11:01;;;;;;;;;;;3.40;99.90;;;;;;5059176;28;19932;-80
2021/12/01 02:13:29;;;;;;;;;;;3.30;99.90;;;;;;5080261;28;19932;-78
2021/12/01 02:15:57;;;;;;;;;;;3.30;99.90;;;;;;5077480;28;19925;-79
2021/12/01 02:18:24;;;;;;;;;;;3.30;99.90;;;;;;5061763;28;19932;-79
2021/12/01 02:21:05;;;;;;;;;;;3.30;99.90;;;;;;5061122;28;19925;-78
2021/12/01 02:23:32;;;;;;;;;;;3.30;99.90;;;;;;5067630;28;19925;-78
2021/12/01 02:25:59;;;;;;;;;;;3.20;99.90;;;;;;5066218;28;20008;-78
2021/12/01 02:28:26;;;;;;;;;;;3.20;99.90;;;;;;5063614;28;19947;-79
2021/12/01 02:30:53;;;;;;;;;;;3.10;99.90;;;;;;5061723;28;19988;-80
2021/12/01 02:33:19;;;;;;;;;;;3.20;99.90;;;;;;5059877;28;19971;-80
2021/12/01 02:35:46;;;;;;;;;;;3.30;99.90;;;;;;5059593;28;19924;-79
2021/12/01 02:38:14;;;;;;;;;;;3.30;99.90;;;;;;5060874;28;19931;-79
2021/12/01 02:40:41;;;;;;;;;;;3.40;99.90;;;;;;5066124;28;19959;-78
2021/12/01 02:43:07;;;;;;;;;;;3.40;99.90;;;;;;5072147;28;19915;-78
2021/12/01 02:45:34;;;;;;;;;;;3.40;99.90;;;;;;5071894;28;20431;-78
2021/12/01 02:48:02;;;;;;;;;;;3.40;99.90;;;;;;5070332;28;19984;-79
2021/12/01 02:50:29;;;;;;;;;;;3.30;99.90;;;;;;5060590;28;20012;-79
2021/12/01 02:52:55;;;;;;;;;;;3.30;99.90;;;;;;5057766;28;19928;-79
2021/12/01 02:55:25;;;;;;;;;;;3.30;99.90;;;;;;5061093;28;19925;-78
2021/12/01 02:57:52;;;;;;;;;;;3.30;99.90;;;;;;5067725;28;19972;-79
2021/12/01 03:00:20;;;;;;;;;;;3.30;99.90;;;;;;5068815;28;20012;-78
2021/12/01 03:02:47;;;;;;;;;;;3.40;99.90;;;;;;5060263;28;19925;-79
2021/12/01 03:05:15;;;;;;;;;;;3.40;99.90;;;;;;5067074;28;20355;-78
2021/12/01 03:07:43;;;;;;;;;;;3.40;99.90;;;;;;5070825;28;19925;-78
2021/12/01 03:10:10;;;;;;;;;;;3.40;99.90;;;;;;5072283;28;19929;-77
2021/12/01 03:12:39;;;;;;;;;;;3.50;99.90;;;;;;5070484;28;20007;-77
2021/12/01 03:15:07;;;;;;;;;;;3.40;99.90;;;;;;5069082;28;19947;-77
2021/12/01 03:17:34;;;;;;;;;;;3.50;99.90;;;;;;5068757;28;19964;-77
2021/12/01 03:20:01;;;;;;;;;;;3.50;99.90;;;;;;5066581;28;19925;-78
2021/12/01 03:22:27;;;;;;;;;;;3.50;99.90;;;;;;5066296;28;20019;-79
2021/12/01 03:24:55;;;;;;;;;;;3.50;99.90;;;;;;5060637;28;19967;-79
2021/12/01 03:27:22;;;;;;;;;;;3.50;99.90;;;;;;5058056;28;19947;-78
2021/12/01 03:29:50;;;;;;;;;;;3.50;99.90;;;;;;5059683;28;19929;-79
2021/12/01 03:32:17;;;;;;;;;;;3.50;99.90;;;;;;5057368;28;19925;-79
2021/12/01 03:34:44;;;;;;;;;;;3.30;99.90;;;;;;5056868;28;19935;-79
2021/12/01 03:37:11;;;;;;;;;;;3.40;99.90;;;;;;5056854;28;19947;-79
2021/12/01 03:39:38;;;;;;;;;;;3.60;99.90;;;;;;5060183;28;19960;-79
2021/12/01 03:42:05;;;;;;;;;;;3.60;99.90;;;;;;5065267;28;19931;-79
2021/12/01 03:44:32;;;;;;;;;;;3.60;99.90;;;;;;5065303;28;19952;-79
2021/12/01 03:47:00;;;;;;;;;;;3.60;99.90;;;;;;5060143;28;19925;-80
2021/12/01 03:49:27;;;;;;;;;;;3.70;99.90;;;;;;5058442;28;19925;-80
2021/12/01 03:51:54;;;;;;;;;;;3.70;99.90;;;;;;5057079;28;20306;-80
2021/12/01 03:54:20;;;;;;;;;;;3.60;99.90;;;;;;5060419;28;20023;-79
2021/12/01 03:56:47;;;;;;;;;;;3.70;99.90;;;;;;5060669;28;20020;-79
2021/12/01 03:59:14;;;;;;;;;;;4.00;99.90;;;;;;5062954;28;19971;-77
2021/12/01 04:01:40;;;;;;;;;;;3.70;99.90;;;;;;5065188;28;20443;-77
2021/12/01 04:04:08;;;;;;;;;;;3.70;99.90;;;;;;5064696;28;19924;-78
2021/12/01 04:06:35;;;;;;;;;;;3.70;99.90;;;;;;5063676;28;19925;-78
2021/12/01 04:09:03;;;;;;;;;;;3.70;99.90;;;;;;5059961;28;19931;-79
2021/12/01 04:11:30;;;;;;;;;;;;;;;;;;5060102;28;19971;-79
2021/12/01 04:13:57;;;;;;;;;;;3.80;99.90;;;;;;5059865;28;19925;-78
2021/12/01 04:16:23;;;;;;;;;;;3.80;99.90;;;;;;5067560;28;19932;-78
2021/12/01 04:18:50;;;;;;;;;;;4.50;99.90;;;;;;5067941;28;20061;-78
2021/12/01 04:21:20;;;;;;;;;;;4.30;99.90;;;;;;5068070;28;19925;-78
2021/12/01 04:23:47;;;;;;;;;;;3.90;99.90;;;;;;5071242;28;19948;-78
2021/12/01 04:26:18;;;;;;;;;;;3.90;99.90;;;;;;5069922;28;20024;-78
2021/12/01 04:28:44;;;;;;;;;;;3.90;99.90;;;;;;5075602;28;19929;-79
2021/12/01 04:31:11;;;;;;;;;;;3.90;99.90;;;;;;5075503;28;19972;-80
2021/12/01 04:33:38;;;;;;;;;;;3.90;99.90;;;;;;5060226;28;20449;-78
2021/12/01 04:36:05;;;;;;;;;;;3.90;99.90;;;;;;5066651;28;19925;-78
2021/12/01 04:38:33;;;;;;;;;;;3.90;99.90;;;;;;5066675;28;20350;-78
2021/12/01 04:40:59;;;;;;;;;;;3.80;99.90;;;;;;5066781;28;19925;-79
2021/12/01 04:43:26;;;;;;;;;;;3.80;99.90;;;;;;5058397;28;20011;-79
2021/12/01 04:45:58;;;;;;;;;;;3.70;99.90;;;;;;5062155;28;19971;-79
2021/12/01 04:48:25;;;;;;;;;;;3.70;99.90;;;;;;5064825;28;19924;-79
2021/12/01 04:50:52;;;;;;;;;;;3.70;99.90;;;;;;5057916;28;19931;-79
2021/12/01 04:53:18;;;;;;;;;;;3.60;99.90;;;;;;5058961;28;20012;-78
2021/12/01 04:55:46;;;;;;;;;;;3.60;99.90;;;;;;5070018;28;19971;-78
2021/12/01 04:58:13;;;;;;;;;;;3.60;99.90;;;;;;5069651;28;19924;-78
2021/12/01 05:00:40;;;;;;;;;;;3.60;99.90;;;;;;5062254;28;19929;-79
2021/12/01 05:03:07;;;;;;;;;;;3.40;99.90;;;;;;5055757;28;20015;-79
2021/12/01 05:05:33;;;;;;;;;;;3.50;99.90;;;;;;5054922;28;19925;-79
2021/12/01 05:08:00;;;;;;;;;;;3.50;99.90;;;;;;5057149;28;19968;-79
2021/12/01 05:10:27;;;;;;;;;;;3.60;99.90;;;;;;5057568;28;19931;-79
2021/12/01 05:12:55;;;;;;;;;;;3.60;99.90;;;;;;5056975;28;20395;-79
2021/12/01 05:15:21;;;;;;;;;;;3.60;99.90;;;;;;5056190;28;19972;-79
2021/12/01 05:17:49;;;;;;;;;;;3.60;99.90;;;;;;5062286;28;19912;-78
2021/12/01 05:20:16;;;;;;;;;;;3.60;99.90;;;;;;5070113;28;19925;-79
2021/12/01 05:22:44;;;;;;;;;;;3.60;99.90;;;;;;5067696;28;20367;-78
2021/12/01 05:25:11;;;;;;;;;;;3.60;99.90;;;;;;5068694;28;19936;-78
2021/12/01 05:27:38;;;;;;;;;;;3.70;99.90;;;;;;5068030;28;19931;-80
2021/12/01 05:30:06;;;;;;;;;;;3.70;99.90;;;;;;5056965;28;19935;-80
2021/12/01 05:32:33;;;;;;;;;;;3.70;99.90;;;;;;5056650;28;19931;-79
2021/12/01 05:35:00;;;;;;;;;;;3.70;99.90;;;;;;5058284;28;19964;-79
2021/12/01 05:37:26;;;;;;;;;;;3.80;99.90;;;;;;5056759;28;19964;-79
2021/12/01 05:39:53;;;;;;;;;;;3.70;99.90;;;;;;5056023;28;19925;-79
2021/12/01 05:42:20;;;;;;;;;;;3.80;99.90;;;;;;5058881;28;20028;-78
2021/12/01 05:44:47;;;;;;;;;;;3.70;99.90;;;;;;5061425;28;20283;-76
2021/12/01 05:47:15;;;;;;;;;;;3.80;99.90;;;;;;5060890;28;20434;-79
2021/12/01 05:49:44;;;;;;;;;;;3.70;99.90;;;;;;5057261;28;20019;-80
2021/12/01 05:52:13;;;;;;;;;;;3.70;99.90;;;;;;5055717;28;19929;-78
2021/12/01 05:54:40;;;;;;;;;;;3.70;99.90;;;;;;5055591;28;19974;-80
2021/12/01 05:57:07;;;;;;;;;;;3.80;99.90;;;;;;5054896;28;19943;-78
2021/12/01 05:59:34;;;;;;;;;;;3.80;99.90;;;;;;5055427;28;20024;-79
2021/12/01 06:02:01;;;;;;;;;;;3.80;99.90;;;;;;5055825;28;19928;-79
2021/12/01 06:04:29;;;;;;;;;;;3.80;99.90;;;;;;5057226;28;19972;-79
2021/12/01 06:06:55;;;;;;;;;;;3.80;99.90;;;;;;5059813;28;19964;-79
2021/12/01 06:09:22;;;;;;;;;;;3.90;99.90;;;;;;5060012;28;19925;-79
2021/12/01 06:11:51;;;;;;;;;;;3.90;99.90;;;;;;5059046;28;19931;-79
2021/12/01 06:14:18;;;;;;;;;;;3.90;99.90;;;;;;5059338;28;19925;-79
2021/12/01 06:16:45;;;;;;;;;;;3.90;99.90;;;;;;5059116;28;20457;-78
2021/12/01 06:19:12;;;;;;;;;;;3.90;99.90;;;;;;5060201;28;19929;-78
2021/12/01 06:21:40;;;;;;;;;;;3.90;99.90;;;;;;5059672;28;20295;-79
2021/12/01 06:24:07;;;;;;;;;;;4.00;99.90;;;;;;5062720;28;19931;-77
2021/12/01 06:26:34;;;;;;;;;;;4.00;99.90;;;;;;5066285;28;19928;-77
2021/12/01 06:29:01;;;;;;;;;;;4.00;99.90;;;;;;5067641;28;19992;-77
2021/12/01 06:31:28;;;;;;;;;;;4.00;99.90;;;;;;5064188;28;20356;-78
2021/12/01 06:33:54;;;;;;;;;;;3.90;99.90;;;;;;5063070;28;19978;-79
2021/12/01 06:38:50;;;;;;;;;;;4.10;99.90;;;;;;5080058;28;19924;-80
2021/12/01 06:41:23;;;;;;;;;;;4.10;99.90;;;;;;5081634;28;20011;-79
2021/12/01 06:43:55;;;;;;;;;;;4.20;99.90;;;;;;5092258;28;19925;-81
2021/12/01 06:46:22;;;;;;;;;;;4.10;99.90;;;;;;5082944;28;19924;-80
2021/12/01 06:48:49;;;;;;;;;;;3.10;99.90;;;;;;5081490;28;19960;-79
2021/12/01 06:51:16;;;;;;;;;;;4.20;99.90;;;;;;5086987;28;19924;-80
2021/12/01 06:53:42;;;;;;;;;;;4.10;99.90;;;;;;5093951;28;19924;-78
2021/12/01 06:56:10;;;;;;;;;;;4.20;99.90;;;;;;5090861;28;19983;-79
2021/12/01 06:58:37;;;;;;;;;;;4.30;99.90;;;;;;5088430;28;19987;-80
2021/12/01 07:01:06;;;;;;;;;;;4.60;99.90;;;;;;5093398;28;20038;-79
2021/12/01 07:03:33;;;;;;;;;;;4.20;99.90;;;;;;5092951;28;19959;-80
2021/12/01 07:06:00;;;;;;;;;;;4.20;99.90;;;;;;5092797;28;19991;-79
2021/12/01 07:08:28;;;;;;;;;;;4.30;99.90;;;;;;5093330;28;19987;-78
2021/12/01 07:10:55;;;;;;;;;;;4.30;99.90;;;;;;5093838;28;20004;-78
2021/12/01 07:13:29;;;;;;;;;;;4.30;99.90;;;;;;5090569;28;19924;-79
2021/12/01 07:15:56;;;;;;;;;;;4.40;99.90;;;;;;5085114;28;19971;-80
2021/12/01 07:18:23;;;;;;;;;;;4.40;99.90;;;;;;5083267;28;19931;-81
2021/12/01 07:20:50;;;;;;;;;;;4.40;99.90;;;;;;5081698;28;20018;-80
2021/12/01 07:23:16;;;;;;;;;;;4.40;99.90;;;;;;5080911;28;19928;-80
2021/12/01 07:25:43;;;;;;;;;;;4.40;99.90;;;;;;5080010;28;20390;-80
2021/12/01 07:28:10;;;;;;;;;;;4.40;99.90;;;;;;5079940;28;19931;-80
2021/12/01 07:30:39;;;;;;;;;;;4.50;99.90;;;;;;5079509;28;20019;-80
2021/12/01 07:33:06;;;;;;;;;;;4.50;99.90;;;;;;5080401;28;19990;-80
2021/12/01 07:35:33;;;;;;;;;;;4.60;99.90;;;;;;5081042;28;20362;-80
2021/12/01 07:38:00;;;;;;;;;;;4.60;99.90;;;;;;5083581;28;19924;-83
2021/12/01 07:40:27;;;;;;;;;;;4.60;99.90;;;;;;5081728;28;20283;-80
2021/12/01 07:42:53;;;;;;;;;;;4.60;99.90;;;;;;5080181;28;19931;-81
2021/12/01 07:45:20;;;;;;;;;;;4.70;99.90;;;;;;5083021;28;19924;-81
2021/12/01 07:47:48;;;;;;;;;;;4.80;99.90;;;;;;5082804;28;19924;-81
2021/12/01 07:50:15;;;;;;;;;;;4.80;99.90;;;;;;5087854;28;19951;-80
2021/12/01 07:52:42;;;;;;;;;;;4.90;99.90;;;;;;5097169;28;19935;-78
2021/12/01 07:55:09;;;;;;;;;;;4.90;99.90;;;;;;5091803;28;19925;-80
2021/12/01 07:57:37;;;;;;;;;;;5.00;99.90;;;;;;5087005;28;19924;-82
2021/12/01 08:00:05;;;;;;;;;;;5.00;99.90;;;;;;5096745;28;19930;-79
2021/12/01 08:02:32;;;;;;;;;;;5.10;99.90;;;;;;5096644;28;19924;-79
2021/12/01 08:05:00;;;;;;;;;;;5.20;99.90;;;;;;5087884;28;19951;-79
2021/12/01 08:07:28;;;;;;;;;;;5.30;99.90;;;;;;5088350;28;19978;-78
2021/12/01 08:09:55;;;;;;;;;;;5.40;99.90;;;;;;5087185;28;19978;-82
2021/12/01 08:12:22;;;;;;;;;;;5.40;99.90;;;;;;5084089;28;19924;-81
2021/12/01 08:14:48;;;;;;;;;;;5.50;99.90;;;;;;5082109;28;19984;-81
2021/12/01 08:17:15;;;;;;;;;;;5.60;99.90;;;;;;5081063;28;19924;-82
2021/12/01 08:19:42;;;;;;;;;;;5.60;99.90;;;;;;5080549;28;19924;-79
2021/12/01 08:22:10;;;;;;;;;;;5.60;99.90;;;;;;5081499;28;19950;-80
2021/12/01 08:24:37;;;;;;;;;;;5.60;99.90;;;;;;5087651;28;19950;-78
2021/12/01 08:27:04;;;;;;;;;;;5.80;99.90;;;;;;5089905;28;20310;-78
2021/12/01 08:29:31;;;;;;;;;;;5.80;99.90;;;;;;5087251;28;19925;-79
2021/12/01 08:31:59;;;;;;;;;;;5.80;99.90;;;;;;5083835;28;19974;-81
2021/12/01 08:34:25;;;;;;;;;;;5.50;99.90;;;;;;5081559;28;19974;-80
2021/12/01 08:36:53;;;;;;;;;;;5.80;99.90;;;;;;5082965;28;19947;-78
2021/12/01 08:39:24;;;;;;;;;;;5.80;99.90;;;;;;5081318;28;19931;-81
2021/12/01 08:41:52;;;;;;;;;;;5.80;99.90;;;;;;5081708;28;20019;-81
2021/12/01 08:44:19;;;;;;;;;;;5.80;99.90;;;;;;5082072;28;19924;-79
2021/12/01 08:46:46;;;;;;;;;;;5.90;99.90;;;;;;5080286;28;20291;-80
2021/12/01 08:49:12;;;;;;;;;;;5.70;99.90;;;;;;5079467;28;19946;-80
2021/12/01 08:51:39;;;;;;;;;;;5.90;99.90;;;;;;5079518;28;19974;-80
2021/12/01 08:54:06;;;;;;;;;;;5.90;99.90;;;;;;5080036;28;19924;-78
2021/12/01 08:56:34;;;;;;;;;;;5.90;99.90;;;;;;5090380;28;19924;-78
2021/12/01 08:59:01;;;;;;;;;;;6.00;99.90;;;;;;5088095;28;19968;-79
2021/12/01 09:01:27;;;;;;;;;;;6.00;99.90;;;;;;5090221;28;19936;-77
2021/12/01 09:03:54;;;;;;;;;;;6.00;99.90;;;;;;5091405;28;19959;-77
2021/12/01 09:06:21;;;;;;;;;;;6.00;99.90;;;;;;5090138;28;19987;-77
2021/12/01 09:08:47;;;;;;;;;;;6.00;99.90;;;;;;5084922;28;20351;-80
2021/12/01 09:11:14;;;;;;;;;;;6.00;99.90;;;;;;5079333;28;20017;-80
2021/12/01 09:13:42;;;;;;;;;;;6.00;99.90;;;;;;5078358;28;20012;-82
2021/12/01 09:16:11;;;;;;;;;;;6.00;99.90;;;;;;5080432;28;19970;-81
2021/12/01 09:18:40;;;;;;;;;;;6.10;99.90;;;;;;5080321;28;19975;-79
2021/12/01 09:21:07;;;;;;;;;;;6.10;99.90;;;;;;5079453;28;19970;-80
2021/12/01 09:23:33;;;;;;;;;;;6.40;99.90;;;;;;5078828;28;20015;-80
2021/12/01 09:26:00;;;;;;;;;;;6.10;99.90;;;;;;5079835;28;19924;-79
2021/12/01 09:28:27;;;;;;;;;;;6.10;99.90;;;;;;5078756;28;20023;-80
2021/12/01 09:30:56;;;;;;;;;;;6.10;99.90;;;;;;5079560;28;20116;-81
2021/12/01 09:33:23;;;;;;;;;;;6.20;99.90;;;;;;5078766;28;19924;-80
2021/12/01 09:35:51;;;;;;;;;;;6.20;99.90;;;;;;5078694;28;19924;-81
2021/12/01 09:38:18;;;;;;;;;;;6.20;99.90;;;;;;5078162;28;19924;-80
2021/12/01 09:40:47;;;;;;;;;;;6.20;99.90;;;;;;5080361;28;20395;-80
2021/12/01 09:43:14;;;;;;;;;;;6.20;99.90;;;;;;5083722;28;19928;-80
2021/12/01 09:45:44;;;;;;;;;;;6.20;99.90;;;;;;5091871;28;19924;-79
2021/12/01 09:48:12;;;;;;;;;;;6.30;99.90;;;;;;5094708;28;19987;-77
2021/12/01 09:50:39;;;;;;;;;;;6.20;99.90;;;;;;5093250;28;19924;-79
2021/12/01 09:53:05;;;;;;;;;;;6.30;99.90;;;;;;5094586;28;20011;-78
2021/12/01 09:55:32;;;;;;;;;;;6.30;99.90;;;;;;5093229;28;19908;-78
2021/12/01 09:58:01;;;;;;;;;;;6.30;99.90;;;;;;5094003;28;19924;-79
2021/12/01 10:00:28;;;;;;;;;;;6.30;99.90;;;;;;5087697;28;20397;-80
2021/12/01 10:02:54;;;;;;;;;;;6.30;99.90;;;;;;5084903;28;20015;-80
2021/12/01 10:05:39;;;;;;;;;;;6.30;99.90;;;;;;5083638;28;19955;-80
2021/12/01 10:08:10;;;;;;;;;;;6.40;99.90;;;;;;5083719;28;19946;-78
2021/12/01 10:10:38;;;;;;;;;;;6.50;99.90;;;;;;5083496;28;19970;-81
2021/12/01 10:13:08;;;;;;;;;;;6.40;99.90;;;;;;5082622;28;20339;-81
2021/12/01 10:15:34;;;;;;;;;;;6.50;99.90;;;;;;5082179;28;19935;-79
2021/12/01 10:18:14;;;;;;;;;;;6.50;99.90;;;;;;5082457;28;19931;-80
2021/12/01 10:20:41;;;;;;;;;;;6.50;99.90;;;;;;5082640;28;19947;-79
2021/12/01 10:23:11;;;;;;;;;;;6.50;99.90;;;;;;5081508;28;20294;-80
2021/12/01 10:25:38;;;;;;;;;;;6.50;99.90;;;;;;5081135;28;19978;-80
2021/12/01 10:28:05;;;;;;;;;;;6.50;99.90;;;;;;5083301;28;19928;-78
2021/12/01 10:30:38;;;;;;;;;;;6.60;99.90;;;;;;5089421;28;19924;-78
2021/12/01 10:33:09;;;;;;;;;;;6.50;99.90;;;;;;5089633;28;19931;-80
2021/12/01 10:35:35;;;;;;;;;;;6.50;99.90;;;;;;5082211;28;19931;-80
2021/12/01 10:38:03;;;;;;;;;;;6.50;99.90;;;;;;5081958;28;19968;-81
2021/12/01 10:40:31;;;;;;;;;;;6.80;99.90;;;;;;5080624;28;19964;-80
2021/12/01 10:42:58;;;;;;;;;;;6.50;99.90;;;;;;5081542;28;19955;-81
2021/12/01 10:45:25;;;;;;;;;;;6.50;99.90;;;;;;5080434;28;20375;-80
2021/12/01 10:47:52;;;;;;;;;;;6.50;99.90;;;;;;5080796;28;19924;-80
2021/12/01 10:50:20;;;;;;;;;;;6.80;99.90;;;;;;5079995;28;19964;-80
2021/12/01 10:52:49;;;;;;;;;;;6.50;99.90;;;;;;5078964;28;19963;-81
2021/12/01 10:55:16;;;;;;;;;;;6.50;99.90;;;;;;5083380;28;20399;-81
2021/12/01 10:57:47;;;;;;;;;;;6.50;99.90;;;;;;5083977;28;19986;-79
2021/12/01 11:00:16;;;;;;;;;;;6.40;99.90;;;;;;5080506;28;19925;-79
2021/12/01 11:02:42;;;;;;;;;;;6.50;99.90;;;;;;5079941;28;19933;-79
2021/12/01 11:05:09;;;;;;;;;;;6.50;99.90;;;;;;5080722;28;19924;-80
2021/12/01 11:07:36;;;;;;;;;;;6.50;99.90;;;;;;5087060;28;19935;-82
2021/12/01 11:10:13;;;;;;;;;;;6.50;99.90;;;;;;5098425;28;19912;-80
2021/12/01 11:12:40;;;;;;;;;;;6.50;99.90;;;;;;5091931;28;19924;-80
2021/12/01 11:15:18;;;;;;;;;;;6.50;99.90;;;;;;5089525;28;20008;-80
2021/12/01 11:17:45;;;;;;;;;;;6.40;99.90;;;;;;5099875;28;19920;-78
2021/12/01 11:20:11;;;;;;;;;;;6.40;99.90;;;;;;5089061;28;20039;-79
2021/12/01 11:22:38;;;;;;;;;;;6.40;99.90;;;;;;5083244;28;19971;-80
2021/12/01 11:25:18;;;;;;;;;;;6.40;99.90;;;;;;5080711;28;19929;-80
2021/12/01 11:27:45;;;;;;;;;;;6.40;99.90;;;;;;5080365;28;19936;-80
2021/12/01 11:30:12;;;;;;;;;;;6.40;99.90;;;;;;5081735;28;20298;-81
2021/12/01 11:32:40;;;;;;;;;;;6.40;99.90;;;;;;5082161;28;19931;-79
2021/12/01 11:35:07;;;;;;;;;;;6.40;99.90;;;;;;5081983;28;19924;-82
2021/12/01 11:37:35;;;;;;;;;;;6.40;99.90;;;;;;5084586;28;19959;-80
2021/12/01 11:40:02;;;;;;;;;;;6.40;99.90;;;;;;5083334;28;19935;-79
2021/12/01 11:42:29;;;;;;;;;;;6.40;99.90;;;;;;5084243;28;19924;-78
2021/12/01 11:44:56;;;;;;;;;;;6.30;99.90;;;;;;5091264;28;19925;-79
2021/12/01 11:47:23;;;;;;;;;;;6.40;99.90;;;;;;5092392;28;19924;-79
2021/12/01 11:49:52;;;;;;;;;;;6.40;99.90;;;;;;5092970;28;20015;-79
2021/12/01 11:52:22;;;;;;;;;;;6.40;99.90;;;;;;5093056;28;19958;-78
2021/12/01 11:54:49;;;;;;;;;;;6.40;99.90;;;;;;5092425;28;19946;-79
2021/12/01 11:57:16;;;;;;;;;;;6.40;99.90;;;;;;5092312;28;19928;-79
2021/12/01 11:59:44;;;;;;;;;;;6.40;99.90;;;;;;5090395;28;19928;-78
2021/12/01 12:02:21;;;;;;;;;;;6.40;99.90;;;;;;5089692;28;20298;-79
2021/12/01 12:04:48;;;;;;;;;;;6.50;99.90;;;;;;5088327;28;20393;-80
2021/12/01 12:07:18;;;;;;;;;;;6.60;99.90;;;;;;5087739;28;19954;-79
2021/12/01 12:10:00;;;;;;;;;;;6.50;99.90;;;;;;5086052;28;19928;-82
2021/12/01 12:12:26;;;;;;;;;;;6.50;99.90;;;;;;5083548;28;19988;-80
2021/12/01 12:14:55;;;;;;;;;;;6.50;99.90;;;;;;5080282;28;19924;-81
2021/12/01 12:17:35;;;;;;;;;;;6.60;99.90;;;;;;5087017;28;19963;-78
2021/12/01 12:20:09;;;;;;;;;;;6.60;99.90;;;;;;5090444;28;19946;-81
2021/12/01 12:22:52;;;;;;;;;;;6.60;99.90;;;;;;5090780;28;19924;-79
2021/12/01 12:25:33;;;;;;;;;;;6.70;99.90;;;;;;5090173;28;19995;-78
2021/12/01 12:28:19;;;;;;;;;;;6.60;99.90;;;;;;5090459;28;19955;-77
2021/12/01 12:30:45;;;;;;;;;;;6.60;99.90;;;;;;5089297;28;19929;-79
2021/12/01 12:33:16;;;;;;;;;;;6.70;99.90;;;;;;5082042;28;19924;-78
2021/12/01 12:35:44;;;;;;;;;;;6.70;99.90;;;;;;5087361;28;19928;-79
2021/12/01 12:38:11;;;;;;;;;;;6.70;99.90;;;;;;5105538;22;19929;-80
2021/12/01 12:40:39;;;;;;;;;;;6.70;99.90;;;;;;5079311;28;19924;-80
2021/12/01 12:43:08;;;;;;;;;;;6.80;99.90;;;;;;5077683;28;20410;-79
2021/12/01 12:45:35;;;;;;;;;;;6.90;99.90;;;;;;5077858;28;19966;-79
2021/12/01 12:48:02;;;;;;;;;;;6.80;99.90;;;;;;5077666;28;19924;-81
2021/12/01 12:50:28;;;;;;;;;;;6.80;99.90;;;;;;5084784;28;19956;-79
2021/12/01 12:52:56;;;;;;;;;;;6.90;99.90;;;;;;5080119;28;20315;-79
2021/12/01 12:55:40;;;;;;;;;;;6.90;99.90;;;;;;5078433;28;20004;-80
2021/12/01 12:58:10;;;;;;;;;;;7.40;99.90;;;;;;5078521;28;19936;-79
2021/12/01 13:00:38;;;;;;;;;;;6.90;99.90;;;;;;5084771;28;19974;-77
2021/12/01 13:03:23;;;;;;;;;;;6.90;99.90;;;;;;5087167;28;20030;-77
2021/12/01 13:05:59;;;;;;;;;;;7.00;99.90;;;;;;5080206;28;19967;-80
2021/12/01 13:08:27;;;;;;;;;;;7.00;99.90;;;;;;5080802;28;19947;-78
2021/12/01 13:10:55;;;;;;;;;;;7.00;99.90;;;;;;5078082;28;19966;-79
2021/12/01 13:13:28;;;;;;;;;;;7.00;99.90;;;;;;5079635;28;19924;-79
2021/12/01 13:15:57;;;;;;;;;;;7.00;99.90;;;;;;5079825;28;19924;-78
2021/12/01 13:18:27;;;;;;;;;;;7.10;99.90;;;;;;5086125;28;19924;-80
2021/12/01 13:20:58;;;;;;;;;;;7.10;99.90;;;;;;5090731;28;20429;-79
2021/12/01 13:23:26;;;;;;;;;;;7.20;99.90;;;;;;5084921;28;19925;-77
2021/12/01 13:25:54;;;;;;;;;;;7.20;99.90;;;;;;5081777;28;19956;-79
2021/12/01 13:28:29;;;;;;;;;;;7.20;99.90;;;;;;5077263;28;19924;-80
2021/12/01 13:30:57;;;;;;;;;;;7.20;99.90;;;;;;5078891;28;19925;-79
2021/12/01 13:33:24;;;;;;;;;;;7.20;99.90;;;;;;5079024;28;20015;-80
2021/12/01 13:35:50;;;;;;;;;;;7.10;99.90;;;;;;5078632;28;19924;-80
2021/12/01 13:38:27;;;;;;;;;;;7.10;99.90;;;;;;5077157;28;19925;-79
2021/12/01 13:40:54;;;;;;;;;;;7.20;99.90;;;;;;5075288;28;19925;-78
2021/12/01 13:43:21;;;;;;;;;;;7.20;99.90;;;;;;5076918;28;19929;-79
2021/12/01 13:45:58;;;;;;;;;;;7.30;99.90;;;;;;5075619;28;20022;-80
2021/12/01 13:48:25;;;;;;;;;;;7.20;99.90;;;;;;5076524;28;19939;-79
2021/12/01 13:50:52;;;;;;;;;;;7.20;99.90;;;;;;5081040;28;19959;-78
2021/12/01 13:53:19;;;;;;;;;;;7.30;99.90;;;;;;5090033;28;19960;-78
2021/12/01 13:55:45;;;;;;;;;;;7.70;99.90;;;;;;5089833;28;19963;-79
2021/12/01 13:58:13;;;;;;;;;;;7.30;99.90;;;;;;5081882;28;19960;-80
2021/12/01 14:00:40;;;;;;;;;;;7.30;99.90;;;;;;5081653;28;19924;-78
2021/12/01 14:03:09;;;;;;;;;;;7.30;99.90;;;;;;5082382;28;19974;-79
2021/12/01 14:05:36;;;;;;;;;;;7.10;99.90;;;;;;5082391;28;19955;-79
2021/12/01 14:08:04;;;;;;;;;;;7.30;99.90;;;;;;5079834;28;19931;-79
2021/12/01 14:10:31;;;;;;;;;;;;;;;;;;5079958;28;19928;-79
2021/12/01 14:12:58;;;;;;;;;;;7.30;99.90;;;;;;5083582;28;19932;-79
2021/12/01 14:15:26;;;;;;;;;;;7.30;99.90;;;;;;5084148;28;19978;-79
2021/12/01 14:17:53;;;;;;;;;;;7.30;99.90;;;;;;5078321;28;19925;-79
2021/12/01 14:20:22;;;;;;;;;;;7.30;99.90;;;;;;5076024;28;19971;-80
2021/12/01 14:22:49;;;;;;;;;;;7.10;99.90;;;;;;5075624;28;19991;-79
2021/12/01 14:25:17;;;;;;;;;;;7.40;99.90;;;;;;5077212;28;19928;-81
2021/12/01 14:27:43;;;;;;;;;;;7.40;99.90;;;;;;5082281;28;19970;-79
2021/12/01 14:30:11;;;;;;;;;;;7.50;99.90;;;;;;5079886;28;19983;-80
2021/12/01 14:32:38;;;;;;;;;;;7.40;99.90;;;;;;5080356;28;19935;-79
2021/12/01 14:35:06;;;;;;;;;;;7.40;99.90;;;;;;5080805;28;19972;-79
2021/12/01 14:37:34;;;;;;;;;;;7.50;99.90;;;;;;5081002;28;19932;-79
2021/12/01 14:40:08;;;;;;;;;;;6.90;99.90;;;;;;5081927;28;20027;-79
2021/12/01 14:42:39;;;;;;;;;;;7.50;99.90;;;;;;5082645;28;19947;-79